createdAt,value
2019-05-03T00:03:34.809Z,9.80
2019-05-03T00:08:41.468Z,9.90
2019-05-03T00:13:47.044Z,9.90
2019-05-03T00:18:52.731Z,10.00
2019-05-03T00:23:58.373Z,10.00
2019-05-03T00:29:03.794Z,10.10
2019-05-03T00:34:12.565Z,10.10
2019-05-03T00:39:26.370Z,10.10
2019-05-03T00:44:31.844Z,10.10
2019-05-03T00:49:37.360Z,10.10
2019-05-03T00:54:42.827Z,10.10
2019-05-03T00:59:48.341Z,10.10
2019-05-03T01:04:53.870Z,10.20
2019-05-03T01:09:59.319Z,10.20
2019-05-03T01:15:06.652Z,10.20
2019-05-03T01:20:12.107Z,10.20
2019-05-03T01:25:29.190Z,10.20
2019-05-03T01:30:24.684Z,10.10
2019-05-03T01:35:32.155Z,10.10
2019-05-03T01:40:37.251Z,10.10
2019-05-03T01:45:42.741Z,10.10
2019-05-03T01:51:07.219Z,10.10
2019-05-03T01:56:12.674Z,10.10
2019-05-03T02:01:28.258Z,10.00
2019-05-03T02:06:33.775Z,10.00
2019-05-03T02:11:39.232Z,10.10
2019-05-03T02:16:44.702Z,10.10
2019-05-03T02:21:52.203Z,10.10
2019-05-03T02:26:57.300Z,10.10
2019-05-03T02:32:03.500Z,10.10
2019-05-03T02:37:09.095Z,10.10
2019-05-03T02:42:16.171Z,10.20
2019-05-03T02:47:36.029Z,10.20
2019-05-03T02:52:41.468Z,10.20
2019-05-03T02:57:47.030Z,10.20
2019-05-03T03:02:52.537Z,10.20
2019-05-03T03:07:58.001Z,10.20
2019-05-03T03:13:05.908Z,10.10
2019-05-03T03:18:10.692Z,10.10
2019-05-03T03:23:18.052Z,10.10
2019-05-03T03:28:25.264Z,10.20
2019-05-03T03:33:30.824Z,10.10
2019-05-03T03:38:36.431Z,10.20
2019-05-03T03:43:41.974Z,10.20
2019-05-03T03:48:47.459Z,10.20
2019-05-03T03:53:55.617Z,10.10
2019-05-03T03:59:00.675Z,9.90
2019-05-03T04:04:06.114Z,9.70
2019-05-03T04:09:11.755Z,9.40
2019-05-03T04:14:22.017Z,9.20
2019-05-03T04:19:31.287Z,9.00
2019-05-03T04:24:36.964Z,9.00
2019-05-03T04:29:45.199Z,8.90
2019-05-03T04:34:49.838Z,8.90
2019-05-03T04:39:56.081Z,8.80
2019-05-03T04:45:01.789Z,8.80
2019-05-03T04:50:07.591Z,8.80
2019-05-03T04:55:15.781Z,8.90
2019-05-03T05:00:20.345Z,9.30
2019-05-03T05:05:26.471Z,9.70
2019-05-03T05:10:31.987Z,10.00
2019-05-03T05:15:37.466Z,10.40
2019-05-03T05:20:55.472Z,10.60
2019-05-03T05:26:11.169Z,10.90
2019-05-03T05:31:16.615Z,11.40
2019-05-03T05:36:22.010Z,12.00
2019-05-03T05:41:27.481Z,12.80
2019-05-03T05:46:38.175Z,13.80
2019-05-03T05:51:44.555Z,14.40
2019-05-03T05:57:01.089Z,14.50
2019-05-03T06:02:09.583Z,14.20
2019-05-03T06:07:29.747Z,14.30
2019-05-03T06:12:54.440Z,14.40
2019-05-03T06:18:02.008Z,14.10
2019-05-03T06:23:24.664Z,13.60
2019-05-03T06:28:35.452Z,13.30
2019-05-03T06:33:41.003Z,13.80
2019-05-03T06:38:46.463Z,14.70
2019-05-03T06:43:51.912Z,15.30
2019-05-03T06:49:01.010Z,16.00
2019-05-03T06:54:05.118Z,18.00
2019-05-03T06:59:16.703Z,19.70
2019-05-03T07:04:29.404Z,20.00
2019-05-03T07:09:40.110Z,19.50
2019-05-03T07:14:45.625Z,19.30
2019-05-03T07:19:51.400Z,19.20
2019-05-03T07:24:56.883Z,18.70
2019-05-03T07:30:04.740Z,18.50
2019-05-03T07:35:09.623Z,18.40
2019-05-03T07:40:15.197Z,19.00
2019-05-03T07:45:20.912Z,20.40
2019-05-03T07:50:26.501Z,19.80
2019-05-03T07:55:49.525Z,18.70
2019-05-03T08:01:06.136Z,18.50
2019-05-03T08:06:05.450Z,18.30
2019-05-03T08:11:10.983Z,18.60
2019-05-03T08:16:16.453Z,19.30
2019-05-03T08:21:21.888Z,19.60
2019-05-03T08:26:27.476Z,20.70
2019-05-03T08:31:45.413Z,21.00
2019-05-03T08:37:05.010Z,20.70
2019-05-03T08:42:15.471Z,20.40
2019-05-03T08:47:20.933Z,20.50
2019-05-03T08:52:26.479Z,21.30
2019-05-03T08:57:31.980Z,20.80
2019-05-03T09:02:37.449Z,20.00
2019-05-03T09:07:44.745Z,19.80
2019-05-03T09:13:07.820Z,20.00
2019-05-03T09:18:16.861Z,20.60
2019-05-03T09:23:23.220Z,22.00
2019-05-03T09:28:29.150Z,22.40
2019-05-03T09:33:35.680Z,24.10
2019-05-03T09:38:41.205Z,25.10
2019-05-03T09:43:46.712Z,24.70
2019-05-03T09:48:52.189Z,26.00
2019-05-03T09:54:05.323Z,25.70
2019-05-03T09:59:10.700Z,25.50
2019-05-03T10:04:18.014Z,25.40
2019-05-03T10:09:25.821Z,24.50
2019-05-03T10:14:30.673Z,22.80
2019-05-03T10:19:40.083Z,21.70
2019-05-03T10:24:45.209Z,21.20
2019-05-03T10:29:50.599Z,20.70
2019-05-03T10:34:59.386Z,20.20
2019-05-03T10:40:07.707Z,19.80
2019-05-03T10:45:11.988Z,19.70
2019-05-03T10:50:17.481Z,19.80
2019-05-03T10:55:24.995Z,19.80
2019-05-03T11:00:52.229Z,19.40
2019-05-03T11:05:37.759Z,18.90
2019-05-03T11:10:43.370Z,18.60
2019-05-03T11:15:48.933Z,18.40
2019-05-03T11:20:54.629Z,18.60
2019-05-03T11:26:00.159Z,18.60
2019-05-03T11:31:27.617Z,18.60
2019-05-03T11:36:48.049Z,18.80
2019-05-03T11:41:56.161Z,18.50
2019-05-03T11:47:01.661Z,17.80
2019-05-03T11:52:07.353Z,17.70
2019-05-03T11:57:19.806Z,18.00
2019-05-03T12:02:44.885Z,18.00
2019-05-03T12:07:50.501Z,18.00
2019-05-03T12:13:10.064Z,18.10
2019-05-03T12:18:16.661Z,17.90
2019-05-03T12:23:25.178Z,18.00
2019-05-03T12:28:29.815Z,18.40
2019-05-03T12:33:35.613Z,18.30
2019-05-03T12:38:41.104Z,18.40
2019-05-03T12:43:46.639Z,18.40
2019-05-03T12:48:52.095Z,18.00
2019-05-03T12:53:57.519Z,17.50
2019-05-03T12:59:16.210Z,17.50
2019-05-03T13:04:24.849Z,17.50
2019-05-03T13:09:30.783Z,17.60
2019-05-03T13:14:36.265Z,17.90
2019-05-03T13:19:41.898Z,18.10
2019-05-03T13:24:47.377Z,18.10
2019-05-03T13:29:52.914Z,18.10
2019-05-03T13:34:58.666Z,18.30
2019-05-03T13:40:04.628Z,18.70
2019-05-03T13:45:11.816Z,19.10
2019-05-03T13:50:17.299Z,19.30
2019-05-03T13:55:24.604Z,19.30
2019-05-03T14:00:30.306Z,19.20
2019-05-03T14:05:35.803Z,19.10
2019-05-03T14:10:41.364Z,18.90
2019-05-03T14:15:47.064Z,18.90
2019-05-03T14:21:11.505Z,18.80
2019-05-03T14:26:16.945Z,18.60
2019-05-03T14:31:22.656Z,18.50
2019-05-03T14:36:28.203Z,18.50
2019-05-03T14:41:33.889Z,18.60
2019-05-03T14:46:39.341Z,18.60
2019-05-03T14:51:45.536Z,18.40
2019-05-03T14:57:16.787Z,18.00
2019-05-03T15:02:40.202Z,17.80
2019-05-03T15:07:35.997Z,17.30
2019-05-03T15:12:41.642Z,17.00
2019-05-03T15:17:47.234Z,16.80
2019-05-03T15:22:54.718Z,16.40
2019-05-03T15:28:00.003Z,16.20
2019-05-03T15:33:05.628Z,15.80
2019-05-03T15:38:11.181Z,15.40
2019-05-03T15:43:29.045Z,15.10
2019-05-03T15:48:38.791Z,14.90
2019-05-03T15:53:44.450Z,14.70
2019-05-03T15:58:49.914Z,14.50
2019-05-03T16:03:55.687Z,14.10
2019-05-03T16:09:01.193Z,13.70
2019-05-03T16:14:06.676Z,13.50
2019-05-03T16:19:12.279Z,13.40
2019-05-03T16:24:17.774Z,13.20
2019-05-03T16:29:24.365Z,13.20
2019-05-03T16:34:29.914Z,13.20
2019-05-03T16:39:35.550Z,13.10
2019-05-03T16:44:41.183Z,13.00
2019-05-03T16:49:46.632Z,12.90
2019-05-03T16:54:52.088Z,12.90
2019-05-03T16:59:57.570Z,12.90
2019-05-03T17:05:10.584Z,13.00
2019-05-03T17:10:22.121Z,13.00
2019-05-03T17:15:27.592Z,13.00
2019-05-03T17:20:34.740Z,12.90
2019-05-03T17:25:40.402Z,12.70
2019-05-03T17:30:45.942Z,12.60
2019-05-03T17:35:51.380Z,12.50
2019-05-03T17:41:12.660Z,12.50
2019-05-03T17:46:18.133Z,12.40
2019-05-03T17:51:48.484Z,12.40
2019-05-03T17:57:12.914Z,12.30
2019-05-03T18:02:27.445Z,12.30
2019-05-03T18:08:00.765Z,12.20
2019-05-03T18:13:06.416Z,12.00
2019-05-03T18:18:11.932Z,11.90
2019-05-03T18:23:17.410Z,11.90
2019-05-03T18:28:24.894Z,11.70
2019-05-03T18:33:30.048Z,11.60
2019-05-03T18:38:41.311Z,11.50
2019-05-03T18:43:58.928Z,11.40
2019-05-03T18:49:04.570Z,11.30
2019-05-03T18:54:10.369Z,11.20
2019-05-03T18:59:15.867Z,11.20
2019-05-03T19:04:34.771Z,11.10
2019-05-03T19:09:46.064Z,11.00
2019-05-03T19:14:51.814Z,10.90
2019-05-03T19:19:57.787Z,10.80
2019-05-03T19:25:03.234Z,10.70
2019-05-03T19:30:08.852Z,10.60
2019-05-03T19:35:15.725Z,10.50
2019-05-03T19:40:21.297Z,10.40
2019-05-03T19:45:26.695Z,10.30
2019-05-03T19:50:32.261Z,10.20
2019-05-03T19:55:37.685Z,10.00
2019-05-03T20:00:54.893Z,9.90
2019-05-03T20:06:08.273Z,9.80
2019-05-03T20:11:15.064Z,9.80
2019-05-03T20:16:20.636Z,9.80
2019-05-03T20:21:26.083Z,9.80
2019-05-03T20:26:31.525Z,9.80
2019-05-03T20:31:36.950Z,9.90
2019-05-03T20:36:42.376Z,9.80
2019-05-03T20:41:47.930Z,9.90
2019-05-03T20:47:15.097Z,10.00
2019-05-03T20:52:20.686Z,10.00
2019-05-03T20:57:26.139Z,10.10
2019-05-03T21:02:31.789Z,10.10
2019-05-03T21:07:37.246Z,10.10
2019-05-03T21:12:42.796Z,10.10
2019-05-03T21:18:15.902Z,10.00
2019-05-03T21:23:24.923Z,10.00
2019-05-03T21:28:30.141Z,10.00
2019-05-03T21:33:35.676Z,9.90
2019-05-03T21:38:41.179Z,9.90
2019-05-03T21:43:47.629Z,9.90
2019-05-03T21:49:10.377Z,9.90
2019-05-03T21:54:15.901Z,9.90
2019-05-03T21:59:21.436Z,9.90
2019-05-03T22:04:26.943Z,9.90
2019-05-03T22:09:32.441Z,9.90
2019-05-03T22:14:59.989Z,9.90
2019-05-03T22:20:14.550Z,10.00
2019-05-03T22:25:24.399Z,10.00
2019-05-03T22:30:29.996Z,10.00
2019-05-03T22:35:35.535Z,9.90
2019-05-03T22:40:41.058Z,9.90
2019-05-03T22:45:46.508Z,9.90
2019-05-03T22:50:51.949Z,9.80
2019-05-03T22:55:57.417Z,9.80
2019-05-03T23:01:03.120Z,9.80
2019-05-03T23:06:19.584Z,9.80
2019-05-03T23:11:15.814Z,9.70
2019-05-03T23:16:21.256Z,9.70
2019-05-03T23:21:28.605Z,9.70
2019-05-03T23:26:34.850Z,9.70
2019-05-03T23:31:40.401Z,9.70
2019-05-03T23:36:45.842Z,9.70
2019-05-03T23:41:51.303Z,9.70
2019-05-03T23:47:05.316Z,9.60
2019-05-03T23:52:47.708Z,9.30
2019-05-03T23:57:55.274Z,9.00
